createdAt,value
2022-08-26T00:01:52.626Z,23.32
2022-08-26T00:04:20.811Z,23.31
2022-08-26T00:06:47.707Z,23.29
2022-08-26T00:09:16.093Z,23.27
2022-08-26T00:11:45.462Z,23.24
2022-08-26T00:14:13.968Z,23.16
2022-08-26T00:16:47.466Z,23.22
2022-08-26T00:19:16.247Z,23.16
2022-08-26T00:21:43.478Z,23.16
2022-08-26T00:24:10.477Z,23.14
2022-08-26T00:26:37.796Z,23.05
2022-08-26T00:29:05.109Z,23.03
2022-08-26T00:31:32.717Z,23.04
2022-08-26T00:34:00.164Z,22.99
2022-08-26T00:36:29.688Z,22.98
2022-08-26T00:38:57.338Z,22.94
2022-08-26T00:41:24.063Z,22.91
2022-08-26T00:43:51.238Z,22.88
2022-08-26T00:46:25.613Z,22.80
2022-08-26T00:49:12.319Z,22.73
2022-08-26T00:51:49.815Z,22.63
2022-08-26T00:54:19.110Z,22.56
2022-08-26T00:56:55.867Z,22.57
2022-08-26T00:59:23.967Z,22.58
2022-08-26T01:01:51.630Z,22.54
2022-08-26T01:04:22.760Z,22.57
2022-08-26T01:06:53.023Z,22.61
2022-08-26T01:09:21.635Z,22.60
2022-08-26T01:11:51.023Z,22.54
2022-08-26T01:14:20.124Z,22.51
2022-08-26T01:16:47.988Z,22.48
2022-08-26T01:19:44.773Z,22.46
2022-08-26T01:22:28.331Z,22.21
2022-08-26T01:24:57.830Z,21.80
2022-08-26T01:27:24.894Z,21.54
2022-08-26T01:29:52.030Z,21.49
2022-08-26T01:32:23.428Z,21.38
2022-08-26T01:34:51.007Z,21.30
2022-08-26T01:37:33.142Z,21.38
2022-08-26T01:40:00.527Z,21.26
2022-08-26T01:42:29.216Z,21.32
2022-08-26T01:45:26.649Z,21.32
2022-08-26T01:47:57.042Z,21.31
2022-08-26T01:50:30.149Z,21.40
2022-08-26T01:53:00.415Z,21.31
2022-08-26T01:55:32.602Z,21.36
2022-08-26T01:58:04.792Z,21.42
2022-08-26T02:00:35.140Z,21.34
2022-08-26T02:03:17.126Z,21.38
2022-08-26T02:05:48.933Z,21.50
2022-08-26T02:08:25.299Z,21.53
2022-08-26T02:10:54.646Z,21.51
2022-08-26T02:13:23.360Z,21.48
2022-08-26T02:15:52.313Z,21.50
2022-08-26T02:18:19.548Z,21.46
2022-08-26T02:20:46.358Z,21.35
2022-08-26T02:23:13.120Z,21.35
2022-08-26T02:25:42.416Z,21.39
2022-08-26T02:28:10.942Z,21.32
2022-08-26T02:30:40.063Z,21.23
2022-08-26T02:33:07.480Z,21.06
2022-08-26T02:35:36.674Z,21.13
2022-08-26T02:38:10.249Z,21.09
2022-08-26T02:40:41.328Z,21.06
2022-08-26T02:43:09.877Z,20.93
2022-08-26T02:45:36.788Z,20.97
2022-08-26T02:48:10.882Z,21.09
2022-08-26T02:50:38.661Z,21.18
2022-08-26T02:53:09.139Z,21.18
2022-08-26T02:55:37.021Z,21.13
2022-08-26T02:58:04.807Z,21.09
2022-08-26T03:00:31.919Z,21.04
2022-08-26T03:02:59.290Z,21.08
2022-08-26T03:05:26.354Z,21.06
2022-08-26T03:07:53.057Z,20.86
2022-08-26T03:10:21.737Z,20.76
2022-08-26T03:12:49.146Z,20.61
2022-08-26T03:15:19.811Z,20.51
2022-08-26T03:17:48.166Z,20.45
2022-08-26T03:20:17.355Z,20.35
2022-08-26T03:22:44.850Z,20.29
2022-08-26T03:25:15.039Z,20.26
2022-08-26T03:27:42.995Z,20.14
2022-08-26T03:30:30.612Z,20.06
2022-08-26T03:32:57.604Z,19.99
2022-08-26T03:35:25.861Z,19.94
2022-08-26T03:37:53.516Z,19.88
2022-08-26T03:40:21.324Z,19.79
2022-08-26T03:42:49.513Z,19.71
2022-08-26T03:45:18.129Z,19.68
2022-08-26T03:47:46.293Z,19.68
2022-08-26T03:50:18.219Z,19.64
2022-08-26T03:52:51.700Z,19.72
2022-08-26T03:55:19.952Z,19.77
2022-08-26T03:57:51.133Z,19.75
2022-08-26T04:00:18.767Z,19.76
2022-08-26T04:02:48.946Z,19.67
2022-08-26T04:05:17.663Z,19.66
2022-08-26T04:07:44.758Z,19.53
2022-08-26T04:10:14.975Z,19.56
2022-08-26T04:12:46.278Z,19.49
2022-08-26T04:15:15.719Z,19.43
2022-08-26T04:17:42.662Z,19.43
2022-08-26T04:20:10.356Z,19.33
2022-08-26T04:22:37.043Z,19.30
2022-08-26T04:25:04.159Z,19.33
2022-08-26T04:27:33.803Z,19.30
2022-08-26T04:30:01.234Z,19.19
2022-08-26T04:32:28.693Z,19.21
2022-08-26T04:34:55.638Z,19.23
2022-08-26T04:37:22.489Z,19.22
2022-08-26T04:39:54.781Z,19.16
2022-08-26T04:42:26.067Z,19.16
2022-08-26T04:44:53.133Z,19.09
2022-08-26T04:47:19.985Z,19.11
2022-08-26T04:49:46.927Z,19.11
2022-08-26T04:52:13.751Z,19.14
2022-08-26T04:54:42.023Z,19.07
2022-08-26T04:57:08.893Z,19.01
2022-08-26T04:59:39.083Z,19.01
2022-08-26T05:02:07.172Z,19.00
2022-08-26T05:04:34.332Z,18.97
2022-08-26T05:07:02.278Z,19.05
2022-08-26T05:09:30.412Z,19.15
2022-08-26T05:11:57.627Z,19.21
2022-08-26T05:14:24.585Z,19.29
2022-08-26T05:16:52.282Z,19.30
2022-08-26T05:19:19.592Z,19.33
2022-08-26T05:21:47.847Z,19.41
2022-08-26T05:24:15.329Z,19.46
2022-08-26T05:26:42.548Z,19.53
2022-08-26T05:29:11.839Z,19.49
2022-08-26T05:31:38.615Z,19.60
2022-08-26T05:34:06.034Z,19.61
2022-08-26T05:36:35.341Z,19.58
2022-08-26T05:39:05.160Z,19.66
2022-08-26T05:41:36.603Z,19.57
2022-08-26T05:44:08.605Z,19.71
2022-08-26T05:46:36.796Z,19.82
2022-08-26T05:49:05.691Z,19.77
2022-08-26T05:51:33.225Z,19.71
2022-08-26T05:54:02.802Z,19.74
2022-08-26T05:56:30.867Z,19.88
2022-08-26T05:58:58.708Z,20.03
2022-08-26T06:01:27.878Z,20.07
2022-08-26T06:04:01.662Z,20.09
2022-08-26T06:06:31.974Z,20.20
2022-08-26T06:09:00.862Z,20.22
2022-08-26T06:11:30.624Z,20.24
2022-08-26T06:14:03.869Z,20.30
2022-08-26T06:16:34.809Z,20.41
2022-08-26T06:19:03.693Z,20.34
2022-08-26T06:21:39.408Z,20.37
2022-08-26T06:24:30.920Z,20.41
2022-08-26T06:27:03.550Z,20.52
2022-08-26T06:29:33.734Z,20.46
2022-08-26T06:32:02.713Z,20.48
2022-08-26T06:34:30.632Z,20.65
2022-08-26T06:37:01.401Z,20.80
2022-08-26T06:39:30.650Z,20.89
2022-08-26T06:41:59.144Z,20.98
2022-08-26T06:44:27.290Z,20.97
2022-08-26T06:46:54.167Z,20.96
2022-08-26T06:49:26.801Z,20.97
2022-08-26T06:51:58.546Z,20.89
2022-08-26T06:54:26.851Z,20.95
2022-08-26T06:56:53.947Z,21.07
2022-08-26T06:59:22.072Z,21.07
2022-08-26T07:01:49.816Z,21.12
2022-08-26T07:04:21.750Z,21.31
2022-08-26T07:06:53.363Z,21.34
2022-08-26T07:09:25.559Z,21.46
2022-08-26T07:11:56.272Z,21.35
2022-08-26T07:14:25.044Z,21.27
2022-08-26T07:16:53.559Z,21.24
2022-08-26T07:19:31.207Z,21.42
2022-08-26T07:22:03.487Z,21.57
2022-08-26T07:24:32.257Z,21.67
2022-08-26T07:27:05.437Z,21.73
2022-08-26T07:29:33.708Z,21.82
2022-08-26T07:32:01.369Z,21.79
2022-08-26T07:34:28.615Z,21.74
2022-08-26T07:36:57.156Z,21.67
2022-08-26T07:39:26.584Z,21.77
2022-08-26T07:41:54.214Z,21.88
2022-08-26T07:44:21.259Z,21.90
2022-08-26T07:46:52.249Z,21.82
2022-08-26T07:49:22.393Z,21.58
2022-08-26T07:51:51.018Z,21.53
2022-08-26T07:54:18.620Z,21.42
2022-08-26T07:56:46.274Z,21.48
2022-08-26T07:59:15.120Z,21.36
2022-08-26T08:01:44.874Z,21.40
2022-08-26T08:04:15.346Z,21.45
2022-08-26T08:06:43.976Z,21.47
2022-08-26T08:09:12.437Z,21.56
2022-08-26T08:11:40.069Z,21.59
2022-08-26T08:14:08.646Z,21.64
2022-08-26T08:16:42.428Z,21.67
2022-08-26T08:19:15.005Z,21.85
2022-08-26T08:21:43.389Z,21.94
2022-08-26T08:24:11.411Z,21.97
2022-08-26T08:26:39.280Z,21.96
2022-08-26T08:29:08.074Z,21.99
2022-08-26T08:34:23.756Z,22.24
2022-08-26T08:36:53.335Z,22.28
2022-08-26T08:39:21.915Z,22.29
2022-08-26T08:42:00.790Z,22.10
2022-08-26T08:44:29.769Z,22.21
2022-08-26T08:47:18.113Z,22.33
2022-08-26T08:49:45.414Z,22.35
2022-08-26T08:52:35.529Z,22.43
2022-08-26T08:55:11.145Z,22.41
2022-08-26T08:57:53.770Z,22.47
2022-08-26T09:00:30.329Z,22.42
2022-08-26T09:03:03.932Z,22.41
2022-08-26T09:05:42.601Z,22.58
2022-08-26T09:08:19.879Z,22.66
2022-08-26T09:10:52.877Z,22.61
2022-08-26T09:13:25.204Z,22.64
2022-08-26T09:16:20.203Z,22.72
2022-08-26T09:18:56.359Z,22.70
2022-08-26T09:21:25.136Z,22.67
2022-08-26T09:23:56.792Z,22.85
2022-08-26T09:26:29.197Z,23.04
2022-08-26T09:29:08.992Z,23.28
2022-08-26T09:31:39.267Z,23.27
2022-08-26T09:34:12.187Z,23.42
2022-08-26T09:36:48.671Z,23.52
2022-08-26T09:39:24.401Z,23.66
2022-08-26T09:42:14.272Z,23.51
2022-08-26T09:44:55.778Z,23.48
2022-08-26T09:47:39.518Z,23.56
2022-08-26T09:50:36.253Z,23.55
2022-08-26T09:53:12.848Z,23.66
2022-08-26T09:56:10.231Z,23.66
2022-08-26T09:58:40.376Z,23.65
2022-08-26T10:01:35.450Z,23.60
2022-08-26T10:04:15.122Z,23.35
2022-08-26T10:06:54.822Z,23.32
2022-08-26T10:09:23.871Z,23.26
2022-08-26T10:11:55.300Z,23.23
2022-08-26T10:14:28.086Z,23.31
2022-08-26T10:17:21.881Z,23.14
2022-08-26T10:19:57.708Z,23.12
2022-08-26T10:22:27.008Z,23.24
2022-08-26T10:24:57.785Z,23.27
2022-08-26T10:27:51.157Z,23.43
2022-08-26T10:30:22.418Z,23.33
2022-08-26T10:32:54.081Z,23.43
2022-08-26T10:35:21.423Z,23.55
2022-08-26T10:37:54.064Z,23.63
2022-08-26T10:40:27.966Z,23.68
2022-08-26T10:43:12.700Z,23.48
2022-08-26T10:45:50.410Z,23.48
2022-08-26T10:48:24.553Z,23.59
2022-08-26T10:50:52.253Z,23.60
2022-08-26T10:53:45.313Z,23.83
2022-08-26T10:56:51.875Z,24.13
2022-08-26T10:59:19.647Z,24.25
2022-08-26T11:02:10.771Z,24.11
2022-08-26T11:04:51.073Z,23.99
2022-08-26T11:07:37.641Z,24.03
2022-08-26T11:10:21.477Z,24.17
2022-08-26T11:12:51.627Z,24.04
2022-08-26T11:15:24.752Z,24.24
2022-08-26T11:17:51.700Z,24.45
2022-08-26T11:20:42.383Z,24.71
2022-08-26T11:23:24.378Z,24.84
2022-08-26T11:26:09.837Z,24.70
2022-08-26T11:28:44.189Z,24.68
2022-08-26T11:31:26.792Z,24.71
2022-08-26T11:33:59.717Z,24.93
2022-08-26T11:36:38.800Z,25.11
2022-08-26T11:39:18.151Z,25.18
2022-08-26T11:41:52.924Z,25.26
2022-08-26T11:44:25.825Z,25.15
2022-08-26T11:46:59.687Z,25.26
2022-08-26T11:49:31.626Z,25.29
2022-08-26T11:52:20.943Z,25.73
2022-08-26T11:55:15.679Z,26.28
2022-08-26T11:57:47.069Z,26.31
2022-08-26T12:00:24.516Z,26.42
2022-08-26T12:02:52.374Z,26.34
2022-08-26T12:05:30.845Z,26.25
2022-08-26T12:08:03.213Z,25.84
2022-08-26T12:10:33.975Z,25.86
2022-08-26T12:13:03.182Z,25.51
2022-08-26T12:15:32.350Z,25.59
2022-08-26T12:18:18.176Z,25.77
2022-08-26T12:20:56.425Z,26.10
2022-08-26T12:23:36.522Z,26.22
2022-08-26T12:26:08.534Z,26.68
2022-08-26T12:28:59.223Z,27.84
2022-08-26T12:31:27.894Z,29.08
2022-08-26T12:33:56.694Z,28.94
2022-08-26T12:36:50.881Z,29.27
2022-08-26T12:39:28.622Z,29.07
2022-08-26T12:41:58.211Z,28.82
2022-08-26T12:44:38.319Z,28.05
2022-08-26T12:47:09.039Z,27.69
2022-08-26T12:49:39.512Z,27.45
2022-08-26T12:52:09.572Z,27.29
2022-08-26T12:54:56.973Z,27.26
2022-08-26T12:57:33.320Z,26.90
2022-08-26T13:00:31.103Z,27.23
2022-08-26T13:03:00.555Z,27.30
2022-08-26T13:05:33.989Z,27.30
2022-08-26T13:08:25.785Z,26.77
2022-08-26T13:11:05.186Z,26.49
2022-08-26T13:13:32.132Z,26.45
2022-08-26T13:16:00.054Z,26.42
2022-08-26T13:18:27.004Z,26.61
2022-08-26T13:20:53.944Z,26.68
2022-08-26T13:23:23.448Z,26.65
2022-08-26T13:25:51.322Z,26.72
2022-08-26T13:28:18.658Z,26.93
2022-08-26T13:30:48.253Z,27.00
2022-08-26T13:33:16.821Z,26.97
2022-08-26T13:35:45.219Z,26.88
2022-08-26T13:38:22.326Z,27.40
2022-08-26T13:41:00.605Z,27.07
2022-08-26T13:43:27.789Z,26.86
2022-08-26T13:45:54.941Z,26.57
2022-08-26T13:48:23.588Z,26.59
2022-08-26T13:50:51.950Z,26.66
2022-08-26T13:53:18.971Z,27.01
2022-08-26T13:55:46.454Z,27.22
2022-08-26T13:58:13.829Z,26.90
2022-08-26T14:00:41.930Z,26.90
2022-08-26T14:03:13.222Z,26.59
2022-08-26T14:05:40.842Z,25.89
2022-08-26T14:08:08.087Z,26.01
2022-08-26T14:10:35.717Z,26.31
2022-08-26T14:13:02.633Z,25.90
2022-08-26T14:15:34.163Z,26.10
2022-08-26T14:18:03.623Z,25.98
2022-08-26T14:20:31.689Z,25.90
2022-08-26T14:23:13.253Z,26.14
2022-08-26T14:25:41.021Z,25.81
2022-08-26T14:28:07.835Z,25.49
2022-08-26T14:30:34.695Z,25.69
2022-08-26T14:33:02.551Z,25.85
2022-08-26T14:35:30.671Z,26.07
2022-08-26T14:37:58.142Z,26.23
2022-08-26T14:40:30.095Z,25.83
2022-08-26T14:42:58.790Z,25.82
2022-08-26T14:45:27.605Z,25.78
2022-08-26T14:47:56.807Z,25.85
2022-08-26T14:50:25.485Z,25.59
2022-08-26T14:53:11.296Z,25.45
2022-08-26T14:55:41.519Z,25.43
2022-08-26T14:58:10.191Z,25.25
2022-08-26T15:00:37.673Z,25.19
2022-08-26T15:03:05.733Z,25.08
2022-08-26T15:05:33.974Z,25.11
2022-08-26T15:08:02.381Z,24.92
2022-08-26T15:10:29.043Z,25.01
2022-08-26T15:12:55.967Z,25.03
2022-08-26T15:15:24.171Z,24.84
2022-08-26T15:17:51.500Z,24.91
2022-08-26T15:20:18.434Z,25.06
2022-08-26T15:22:45.479Z,25.08
2022-08-26T15:25:13.012Z,24.86
2022-08-26T15:27:39.885Z,24.77
2022-08-26T15:30:10.485Z,24.67
2022-08-26T15:32:37.349Z,24.51
2022-08-26T15:35:08.826Z,24.54
2022-08-26T15:37:36.277Z,24.41
2022-08-26T15:40:04.091Z,24.54
2022-08-26T15:42:31.023Z,24.56
2022-08-26T15:44:57.806Z,24.67
2022-08-26T15:47:24.646Z,24.60
2022-08-26T15:49:51.493Z,24.46
2022-08-26T15:52:19.626Z,24.66
2022-08-26T15:54:46.472Z,24.64
2022-08-26T15:57:15.312Z,24.63
2022-08-26T15:59:43.422Z,24.64
2022-08-26T16:02:10.757Z,24.56
2022-08-26T16:04:37.714Z,24.52
2022-08-26T16:07:05.020Z,24.42
2022-08-26T16:09:31.953Z,24.28
2022-08-26T16:11:58.866Z,24.43
2022-08-26T16:14:26.707Z,24.56
2022-08-26T16:16:53.602Z,24.39
2022-08-26T16:19:21.171Z,24.31
2022-08-26T16:21:48.337Z,24.35
2022-08-26T16:24:15.197Z,24.29
2022-08-26T16:26:44.037Z,24.00
2022-08-26T16:29:14.747Z,24.01
2022-08-26T16:31:42.045Z,23.84
2022-08-26T16:34:09.887Z,23.90
2022-08-26T16:36:38.645Z,23.70
2022-08-26T16:39:07.671Z,23.69
2022-08-26T16:41:35.227Z,23.73
2022-08-26T16:44:02.516Z,23.55
2022-08-26T16:46:30.015Z,23.38
2022-08-26T16:48:58.592Z,23.35
2022-08-26T16:51:27.942Z,23.17
2022-08-26T16:53:56.734Z,23.13
2022-08-26T16:56:33.547Z,23.17
2022-08-26T16:59:02.958Z,23.23
2022-08-26T17:01:30.249Z,23.32
2022-08-26T17:03:57.370Z,23.26
2022-08-26T17:06:24.301Z,23.21
2022-08-26T17:08:51.005Z,23.19
2022-08-26T17:11:17.894Z,23.17
2022-08-26T17:13:44.833Z,23.05
2022-08-26T17:16:13.274Z,22.89
2022-08-26T17:18:40.655Z,22.73
2022-08-26T17:21:11.619Z,22.69
2022-08-26T17:23:39.674Z,22.65
2022-08-26T17:26:07.487Z,22.50
2022-08-26T17:28:34.473Z,22.64
2022-08-26T17:31:01.834Z,22.65
2022-08-26T17:33:29.316Z,22.60
2022-08-26T17:36:00.545Z,22.64
2022-08-26T17:38:29.332Z,22.54
2022-08-26T17:40:57.469Z,22.49
2022-08-26T17:43:26.885Z,22.40
2022-08-26T17:46:00.066Z,22.40
2022-08-26T17:48:35.706Z,22.29
2022-08-26T17:51:14.019Z,22.33
2022-08-26T17:53:41.786Z,22.16
2022-08-26T17:56:11.590Z,22.08
2022-08-26T17:58:40.731Z,22.05
2022-08-26T18:01:19.573Z,21.97
2022-08-26T18:03:46.487Z,21.94
2022-08-26T18:06:14.237Z,21.90
2022-08-26T18:08:41.742Z,21.89
2022-08-26T18:11:10.890Z,21.81
2022-08-26T18:13:38.963Z,21.79
2022-08-26T18:16:14.313Z,21.60
2022-08-26T18:18:42.270Z,21.72
2022-08-26T18:21:18.217Z,21.79
2022-08-26T18:23:46.994Z,21.73
2022-08-26T18:26:22.485Z,21.61
2022-08-26T18:28:50.578Z,21.78
2022-08-26T18:31:18.534Z,21.69
2022-08-26T18:33:46.129Z,21.50
2022-08-26T18:36:25.087Z,21.50
2022-08-26T18:38:55.096Z,21.39
2022-08-26T18:41:25.054Z,21.39
2022-08-26T18:43:53.292Z,21.32
2022-08-26T18:46:33.076Z,21.37
2022-08-26T18:49:03.433Z,21.35
2022-08-26T18:51:33.673Z,21.14
2022-08-26T18:54:03.174Z,21.22
2022-08-26T18:56:30.512Z,21.26
2022-08-26T18:58:59.255Z,21.36
2022-08-26T19:01:28.320Z,21.28
2022-08-26T19:03:59.527Z,21.23
2022-08-26T19:06:28.374Z,21.21
2022-08-26T19:08:55.845Z,21.34
2022-08-26T19:11:31.593Z,21.34
2022-08-26T19:14:00.940Z,21.29
2022-08-26T19:16:28.766Z,21.25
2022-08-26T19:18:56.482Z,21.20
2022-08-26T19:21:24.035Z,21.17
2022-08-26T19:23:51.501Z,21.16
2022-08-26T19:26:18.653Z,21.07
2022-08-26T19:28:45.476Z,21.04
2022-08-26T19:31:12.754Z,20.94
2022-08-26T19:33:43.194Z,20.94
2022-08-26T19:36:18.579Z,20.86
2022-08-26T19:38:46.097Z,20.85
2022-08-26T19:41:14.843Z,20.85
2022-08-26T19:43:42.653Z,20.82
2022-08-26T19:46:15.350Z,20.81
2022-08-26T19:48:45.269Z,20.86
2022-08-26T19:51:15.776Z,20.83
2022-08-26T19:53:52.851Z,20.88
2022-08-26T19:56:24.286Z,20.65
2022-08-26T19:58:51.575Z,20.74
2022-08-26T20:01:22.240Z,20.85
2022-08-26T20:03:52.419Z,20.63
2022-08-26T20:06:20.356Z,20.70
2022-08-26T20:08:47.910Z,20.68
2022-08-26T20:11:19.087Z,20.56
2022-08-26T20:13:47.157Z,20.55
2022-08-26T20:16:15.132Z,20.53
2022-08-26T20:19:01.780Z,20.46
2022-08-26T20:21:33.217Z,20.40
2022-08-26T20:24:13.084Z,20.38
2022-08-26T20:26:42.238Z,20.38
2022-08-26T20:29:11.575Z,20.24
2022-08-26T20:31:39.703Z,20.14
2022-08-26T20:34:06.924Z,20.06
2022-08-26T20:36:34.235Z,20.09
2022-08-26T20:39:01.104Z,19.98
2022-08-26T20:41:28.731Z,19.98
2022-08-26T20:43:56.443Z,19.94
2022-08-26T20:46:25.244Z,19.88
2022-08-26T20:48:53.340Z,19.72
2022-08-26T20:51:21.614Z,19.53
2022-08-26T20:53:48.547Z,19.36
2022-08-26T20:56:21.862Z,19.40
2022-08-26T20:58:48.798Z,19.41
2022-08-26T21:01:21.674Z,19.31
2022-08-26T21:03:54.079Z,19.46
2022-08-26T21:06:21.877Z,19.26
2022-08-26T21:08:50.173Z,19.24
2022-08-26T21:11:19.903Z,19.27
2022-08-26T21:16:36.337Z,19.19
2022-08-26T21:19:07.966Z,19.12
2022-08-26T21:21:35.407Z,19.14
2022-08-26T21:24:02.832Z,19.14
2022-08-26T21:26:29.927Z,19.02
2022-08-26T21:28:56.891Z,18.92
2022-08-26T21:31:25.089Z,18.99
2022-08-26T21:33:52.286Z,18.85
2022-08-26T21:36:20.107Z,18.87
2022-08-26T21:38:48.523Z,18.91
2022-08-26T21:41:19.706Z,18.85
2022-08-26T21:43:47.744Z,18.75
2022-08-26T21:46:18.040Z,18.79
2022-08-26T21:48:50.765Z,18.84
2022-08-26T21:51:20.777Z,18.88
2022-08-26T21:53:48.108Z,18.88
2022-08-26T21:56:17.930Z,18.87
2022-08-26T21:58:45.472Z,18.91
2022-08-26T22:01:16.510Z,18.89
2022-08-26T22:03:47.547Z,18.77
2022-08-26T22:06:17.943Z,18.72
2022-08-26T22:08:44.844Z,18.81
2022-08-26T22:11:15.651Z,18.74
2022-08-26T22:13:43.640Z,18.70
2022-08-26T22:16:11.621Z,18.75
2022-08-26T22:18:39.586Z,18.70
2022-08-26T22:21:09.734Z,18.75
2022-08-26T22:23:44.367Z,18.83
2022-08-26T22:26:15.479Z,18.72
2022-08-26T22:28:57.451Z,18.77
2022-08-26T22:31:37.660Z,18.73
2022-08-26T22:34:11.295Z,18.76
2022-08-26T22:36:44.169Z,18.77
2022-08-26T22:39:17.471Z,18.89
2022-08-26T22:41:45.461Z,18.86
2022-08-26T22:44:12.718Z,18.86
2022-08-26T22:46:41.794Z,18.90
2022-08-26T22:49:15.883Z,18.82
2022-08-26T22:51:45.239Z,18.92
2022-08-26T22:54:13.213Z,18.93
2022-08-26T22:56:40.857Z,18.96
2022-08-26T22:59:11.275Z,18.98
2022-08-26T23:01:42.655Z,18.87
2022-08-26T23:04:11.671Z,18.89
2022-08-26T23:06:41.306Z,18.76
2022-08-26T23:09:09.612Z,18.79
2022-08-26T23:11:38.678Z,18.84
2022-08-26T23:14:10.400Z,18.76
2022-08-26T23:16:39.308Z,18.78
2022-08-26T23:19:08.411Z,18.75
2022-08-26T23:21:35.617Z,18.81
2022-08-26T23:24:02.652Z,18.78
2022-08-26T23:26:31.831Z,18.86
2022-08-26T23:29:00.742Z,18.84
2022-08-26T23:31:27.895Z,18.97
2022-08-26T23:34:13.863Z,18.92
2022-08-26T23:36:43.400Z,18.83
2022-08-26T23:39:13.684Z,18.91
2022-08-26T23:41:40.905Z,18.92
2022-08-26T23:44:07.918Z,18.84
2022-08-26T23:46:35.640Z,18.89
2022-08-26T23:49:02.446Z,18.89
2022-08-26T23:51:48.272Z,18.84
2022-08-26T23:54:15.241Z,18.88
2022-08-26T23:56:42.469Z,18.84
2022-08-26T23:59:09.522Z,18.88
